Time;durP1;ratioP1;P1;durP2;ratioP2;P2;SDS_P1;SDS_P2;PMS_P1;PMS_P2;Temp;Humidity;BMP_temperature;BMP_pressure;BME280_temperature;BME280_humidity;BME280_pressure;Samples;Min_cycle;Max_cycle;Signal;HPM_P1;HPM_P2
2024/02/24 00:02:10;;;;;;;2.50;0.70;;;21.60;73.10;;;;;;5002021;28;20661;-64
2024/02/24 00:04:38;;;;;;;1.05;0.70;;;21.50;73.10;;;;;;5007624;28;20207;-64
2024/02/24 00:07:06;;;;;;;0.90;0.70;;;21.50;72.90;;;;;;5005015;28;20199;-63
2024/02/24 00:09:38;;;;;;;0.90;0.60;;;21.50;73.10;;;;;;5005651;28;20197;-63
2024/02/24 00:12:13;;;;;;;1.10;0.70;;;21.50;73.10;;;;;;5001901;28;20219;-64
2024/02/24 00:14:43;;;;;;;1.40;0.70;;;21.50;73.10;;;;;;4999805;28;20196;-63
2024/02/24 00:17:20;;;;;;;1.15;0.70;;;21.50;73.10;;;;;;5003280;28;20196;-64
2024/02/24 00:19:54;;;;;;;1.53;0.70;;;21.50;73.10;;;;;;5001203;28;20211;-64
2024/02/24 00:22:27;;;;;;;1.95;0.60;;;21.50;73.10;;;;;;5002096;28;20594;-63
2024/02/24 00:27:46;;;;;;;3.83;0.70;;;21.50;73.10;;;;;;5001358;28;20212;-64
2024/02/24 00:30:22;;;;;;;1.20;0.70;;;21.50;73.00;;;;;;4998094;28;20205;-64
2024/02/24 00:32:53;;;;;;;0.93;0.60;;;21.40;73.00;;;;;;5009578;28;20219;-64
2024/02/24 00:35:27;;;;;;;1.20;0.70;;;21.40;73.00;;;;;;5007574;28;20573;-64
2024/02/24 00:37:58;;;;;;;1.10;0.60;;;21.40;73.00;;;;;;5009513;28;20196;-63
2024/02/24 00:40:30;;;;;;;1.10;0.70;;;21.40;73.00;;;;;;5007862;28;20519;-64
2024/02/24 00:43:04;;;;;;;1.48;0.82;;;21.40;73.00;;;;;;5001174;28;20200;-65
2024/02/24 00:45:52;;;;;;;1.08;0.80;;;21.40;73.00;;;;;;5006056;28;20200;-63
2024/02/24 00:48:26;;;;;;;0.90;0.60;;;21.40;73.00;;;;;;5008219;28;20207;-64
2024/02/24 00:50:56;;;;;;;2.95;0.77;;;21.40;73.00;;;;;;5002882;28;20200;-64
2024/02/24 00:53:27;;;;;;;1.00;0.70;;;21.40;73.00;;;;;;5006870;28;20712;-64
2024/02/24 00:56:09;;;;;;;1.13;0.82;;;21.30;73.00;;;;;;5006229;28;20216;-65
2024/02/24 00:58:43;;;;;;;1.02;0.63;;;21.40;73.10;;;;;;5002482;28;20204;-65
2024/02/24 01:01:24;;;;;;;0.90;0.60;;;21.40;73.10;;;;;;5008373;28;20295;-64
2024/02/24 01:03:55;;;;;;;0.90;0.70;;;21.30;73.00;;;;;;5008844;28;20510;-64
2024/02/24 01:06:24;;;;;;;0.80;0.60;;;21.30;73.00;;;;;;5007222;28;20200;-64
2024/02/24 01:08:54;;;;;;;0.90;0.60;;;21.30;73.00;;;;;;5005252;28;20219;-63
2024/02/24 01:11:21;;;;;;;1.30;0.73;;;21.30;73.00;;;;;;5001706;28;20231;-63
2024/02/24 01:13:59;;;;;;;0.97;0.70;;;21.30;73.90;;;;;;4971711;28;1020277;-64
2024/02/24 01:16:31;;;;;;;1.00;0.73;;;21.30;73.10;;;;;;5004816;28;20266;-64
2024/02/24 01:19:02;;;;;;;1.35;0.88;;;21.30;73.10;;;;;;5004361;28;20200;-64
2024/02/24 01:21:32;;;;;;;1.55;0.82;;;21.30;73.20;;;;;;5002141;28;20624;-64
2024/02/24 01:24:13;;;;;;;0.97;0.67;;;21.30;73.10;;;;;;5005234;28;20234;-64
2024/02/24 01:26:44;;;;;;;0.90;0.60;;;21.30;73.70;;;;;;5006375;28;20978;-64
2024/02/24 01:29:20;;;;;;;1.10;0.70;;;21.30;73.20;;;;;;5008197;28;20288;-63
2024/02/24 01:31:49;;;;;;;1.00;0.70;;;21.30;73.10;;;;;;5000437;28;20845;-64
2024/02/24 01:34:19;;;;;;;1.05;0.80;;;21.20;73.10;;;;;;5000365;28;20195;-64
2024/02/24 01:36:56;;;;;;;1.00;0.60;;;21.20;73.10;;;;;;5009646;28;20319;-65
2024/02/24 01:39:35;;;;;;;1.00;0.70;;;21.20;73.10;;;;;;5001407;28;20192;-63
2024/02/24 01:42:12;;;;;;;1.30;0.60;;;21.20;73.10;;;;;;5006049;28;20255;-64
2024/02/24 01:44:46;;;;;;;1.40;0.70;;;21.20;73.10;;;;;;5003962;28;20199;-64
2024/02/24 01:47:22;;;;;;;1.10;0.73;;;21.20;73.20;;;;;;5003975;28;20211;-65
2024/02/24 01:49:56;;;;;;;1.00;0.65;;;21.20;73.20;;;;;;5001196;28;20205;-63
2024/02/24 01:52:25;;;;;;;1.00;0.70;;;21.20;73.10;;;;;;5007928;28;20220;-64
2024/02/24 01:55:01;;;;;;;0.90;0.70;;;21.20;73.20;;;;;;5005089;28;20748;-65
2024/02/24 01:57:44;;;;;;;;;;;;;;;;;;;;;
2024/02/24 02:00:18;;;;;;;0.80;0.60;;;21.20;73.20;;;;;;5003466;28;20203;-64
2024/02/24 02:02:47;;;;;;;0.95;0.60;;;21.20;73.20;;;;;;5008768;28;20204;-64
2024/02/24 02:05:16;;;;;;;0.90;0.63;;;21.20;73.20;;;;;;5003716;28;20199;-64
2024/02/24 02:07:49;;;;;;;0.95;0.60;;;21.10;73.20;;;;;;5007806;28;20210;-64
2024/02/24 02:10:29;;;;;;;0.90;0.60;;;21.10;73.20;;;;;;5015773;28;20197;-64
2024/02/24 02:12:56;;;;;;;1.27;1.00;;;21.10;73.10;;;;;;5007632;28;20318;-64
2024/02/24 02:15:26;;;;;;;1.10;0.60;;;21.10;73.30;;;;;;5007817;28;20200;-65
2024/02/24 02:17:53;;;;;;;0.90;0.60;;;21.10;73.20;;;;;;5002043;28;20298;-64
2024/02/24 02:20:38;;;;;;;;;;;;;;;;;;;;;
2024/02/24 02:23:13;;;;;;;0.95;0.70;;;21.10;73.10;;;;;;5008335;28;20214;-64
2024/02/24 02:25:48;;;;;;;0.80;0.60;;;21.10;73.20;;;;;;5009553;28;20846;-63
2024/02/24 02:28:29;;;;;;;1.30;0.70;;;21.10;73.30;;;;;;4997735;28;20918;-64
2024/02/24 02:31:00;;;;;;;0.98;0.70;;;21.00;73.10;;;;;;5002681;28;20572;-64
2024/02/24 02:33:29;;;;;;;1.15;0.70;;;21.10;73.30;;;;;;5007512;28;20226;-64
2024/02/24 02:35:57;;;;;;;0.90;0.60;;;21.10;73.20;;;;;;5007305;28;20719;-64
2024/02/24 02:38:25;;;;;;;0.90;0.65;;;21.00;73.10;;;;;;4996476;28;20510;-65
2024/02/24 02:40:54;;;;;;;1.00;0.60;;;21.00;73.20;;;;;;5004608;28;21063;-64
2024/02/24 02:43:29;;;;;;;1.00;0.60;;;21.00;73.30;;;;;;5006820;28;20667;-64
2024/02/24 02:45:57;;;;;;;1.00;0.60;;;21.00;73.20;;;;;;5001571;28;20200;-64
2024/02/24 02:48:29;;;;;;;0.90;0.60;;;21.00;73.20;;;;;;5005320;28;20819;-64
2024/02/24 02:50:59;;;;;;;0.80;0.50;;;21.00;73.40;;;;;;5004218;28;20204;-64
2024/02/24 02:53:27;;;;;;;1.45;0.80;;;21.00;73.40;;;;;;5007002;28;20224;-63
2024/02/24 02:55:59;;;;;;;0.88;0.60;;;21.00;73.30;;;;;;5000635;28;20282;-64
2024/02/24 02:58:28;;;;;;;0.90;0.70;;;21.00;73.30;;;;;;5004857;28;20191;-63
2024/02/24 03:00:59;;;;;;;1.10;0.60;;;21.00;73.30;;;;;;5000000;28;20656;-64
2024/02/24 03:03:30;;;;;;;0.80;0.60;;;21.00;73.30;;;;;;5007673;28;20713;-63
2024/02/24 03:06:06;;;;;;;1.10;0.60;;;21.00;73.40;;;;;;5003288;28;20206;-65
2024/02/24 03:11:25;;;;;;;;;;;;;;;;;;;;;
2024/02/24 03:14:20;;;;;;;1.15;0.70;;;21.00;73.30;;;;;;5004689;28;20227;-64
2024/02/24 03:16:49;;;;;;;1.20;0.70;;;20.90;73.30;;;;;;4999416;28;20211;-64
2024/02/24 03:19:19;;;;;;;0.90;0.70;;;20.90;73.30;;;;;;5005152;28;20255;-64
2024/02/24 03:21:48;;;;;;;0.90;0.60;;;20.90;73.30;;;;;;5008324;28;20724;-64
2024/02/24 03:24:17;;;;;;;0.90;0.70;;;20.90;73.30;;;;;;5004370;28;20206;-64
2024/02/24 03:26:46;;;;;;;0.80;0.60;;;20.90;73.20;;;;;;5007391;28;20203;-64
2024/02/24 03:29:13;;;;;;;1.25;0.70;;;20.90;73.20;;;;;;5007903;28;20206;-64
2024/02/24 03:31:44;;;;;;;1.20;0.80;;;20.90;73.30;;;;;;5005859;28;20204;-64
2024/02/24 03:34:14;;;;;;;0.90;0.60;;;20.90;73.40;;;;;;5003985;28;20192;-64
2024/02/24 03:36:42;;;;;;;1.10;0.70;;;20.90;73.40;;;;;;5004527;28;20640;-64
2024/02/24 03:39:09;;;;;;;0.90;0.60;;;20.90;73.50;;;;;;5005918;28;21205;-63
2024/02/24 03:41:47;;;;;;;1.00;0.80;;;20.90;73.50;;;;;;4999770;28;20577;-63
2024/02/24 03:44:21;;;;;;;0.90;0.60;;;20.90;73.50;;;;;;5000294;28;20656;-65
2024/02/24 03:46:50;;;;;;;0.90;0.70;;;20.90;73.50;;;;;;4998043;28;20694;-64
2024/02/24 03:49:27;;;;;;;0.80;0.60;;;20.90;73.50;;;;;;4998900;28;20205;-65
2024/02/24 03:51:55;;;;;;;0.90;0.70;;;20.90;73.50;;;;;;4995334;28;20246;-66
2024/02/24 03:54:34;;;;;;;0.90;0.70;;;20.90;73.50;;;;;;5005172;28;20251;-64
2024/02/24 03:57:08;;;;;;;0.90;0.60;;;20.90;73.40;;;;;;5003804;28;20535;-64
2024/02/24 03:59:45;;;;;;;0.90;0.60;;;20.90;73.50;;;;;;5003575;28;20282;-64
2024/02/24 04:02:14;;;;;;;0.90;0.60;;;20.90;73.50;;;;;;5001147;28;20453;-64
2024/02/24 04:04:48;;;;;;;1.10;0.60;;;20.80;73.50;;;;;;4996782;28;20203;-64
2024/02/24 04:07:19;;;;;;;0.90;0.70;;;20.80;73.40;;;;;;5000401;28;20274;-64
2024/02/24 04:09:51;;;;;;;0.80;0.60;;;20.80;73.50;;;;;;4995575;28;20665;-64
2024/02/24 04:12:28;;;;;;;0.90;0.60;;;20.80;73.50;;;;;;5002122;28;20325;-64
2024/02/24 04:14:56;;;;;;;1.00;0.60;;;20.80;73.50;;;;;;5005148;28;20253;-64
2024/02/24 04:17:30;;;;;;;1.30;0.80;;;20.80;73.30;;;;;;5005000;28;20563;-64
2024/02/24 04:19:59;;;;;;;1.10;0.80;;;20.80;73.50;;;;;;4994800;28;20203;-64
2024/02/24 04:22:30;;;;;;;0.90;0.60;;;20.80;73.50;;;;;;4999337;28;20327;-64
2024/02/24 04:24:58;;;;;;;0.98;0.60;;;20.80;73.50;;;;;;5000950;28;20341;-64
2024/02/24 04:27:35;;;;;;;0.90;0.57;;;20.80;73.50;;;;;;5001441;28;20346;-64
2024/02/24 04:30:09;;;;;;;0.90;0.60;;;20.80;73.50;;;;;;5000557;28;20612;-64
2024/02/24 04:32:50;;;;;;;0.90;0.73;;;20.80;73.50;;;;;;5000050;28;20722;-64
2024/02/24 04:35:21;;;;;;;0.90;0.60;;;20.80;73.60;;;;;;5000762;28;20292;-63
2024/02/24 04:37:50;;;;;;;0.82;0.60;;;20.80;73.40;;;;;;5010056;28;20196;-65
2024/02/24 04:40:24;;;;;;;1.02;0.60;;;20.80;73.50;;;;;;5006039;28;20219;-64
2024/02/24 04:42:53;;;;;;;0.88;0.60;;;20.80;73.60;;;;;;5011238;28;20299;-64
2024/02/24 04:45:21;;;;;;;0.80;0.50;;;20.80;73.60;;;;;;4999990;28;20196;-64
2024/02/24 04:47:59;;;;;;;0.90;0.60;;;20.80;73.70;;;;;;5001401;28;20201;-64
2024/02/24 04:50:31;;;;;;;0.90;0.60;;;20.70;73.60;;;;;;4989703;28;20471;-64
2024/02/24 04:53:02;;;;;;;1.00;0.70;;;20.70;73.60;;;;;;4999221;28;20304;-65
2024/02/24 04:55:47;;;;;;;;;;;;;;;;;;;;;
2024/02/24 04:58:20;;;;;;;1.00;0.70;;;20.70;73.40;;;;;;5004644;28;20200;-64
2024/02/24 05:00:49;;;;;;;0.98;0.63;;;20.80;73.70;;;;;;5002275;28;20211;-64
2024/02/24 05:03:24;;;;;;;1.00;0.60;;;20.80;73.50;;;;;;5006364;28;20254;-65
2024/02/24 05:05:50;;;;;;;0.90;0.60;;;20.70;73.50;;;;;;5001716;28;20192;-64
2024/02/24 05:08:21;;;;;;;0.90;0.60;;;20.70;73.60;;;;;;5007484;28;20204;-64
2024/02/24 05:11:01;;;;;;;0.90;0.60;;;20.70;73.40;;;;;;5001055;28;20254;-64
2024/02/24 05:13:31;;;;;;;0.90;0.60;;;20.70;73.70;;;;;;5006887;28;20800;-64
2024/02/24 05:16:07;;;;;;;0.90;0.70;;;20.70;73.60;;;;;;5003602;28;20619;-64
2024/02/24 05:18:38;;;;;;;0.90;0.80;;;20.70;73.60;;;;;;5008337;28;20199;-65
2024/02/24 05:21:21;;;;;;;1.00;0.68;;;20.70;73.60;;;;;;5007416;28;20197;-65
2024/02/24 05:23:53;;;;;;;0.80;0.57;;;20.70;73.60;;;;;;5008716;28;20591;-63
2024/02/24 05:26:26;;;;;;;1.00;0.70;;;20.70;73.70;;;;;;5003662;28;20273;-64
2024/02/24 05:29:03;;;;;;;0.90;0.60;;;20.70;73.60;;;;;;5007980;28;20283;-64
2024/02/24 05:31:33;;;;;;;0.90;0.60;;;20.70;73.40;;;;;;5008901;28;20191;-64
2024/02/24 05:34:10;;;;;;;0.90;0.60;;;20.70;73.60;;;;;;5007880;28;20718;-64
2024/02/24 05:36:45;;;;;;;0.90;0.60;;;20.70;73.70;;;;;;5010165;28;20595;-64
2024/02/24 05:39:21;;;;;;;1.00;0.68;;;20.70;73.50;;;;;;5009582;28;20678;-64
2024/02/24 05:41:56;;;;;;;1.13;0.70;;;20.70;73.70;;;;;;5006627;28;20207;-65
2024/02/24 05:44:28;;;;;;;1.10;0.80;;;20.70;73.60;;;;;;5000620;28;20214;-65
2024/02/24 05:46:56;;;;;;;1.00;0.60;;;20.70;73.70;;;;;;5003268;28;20672;-64
2024/02/24 05:49:26;;;;;;;0.90;0.70;;;20.70;73.70;;;;;;5004622;28;20191;-64
2024/02/24 05:51:54;;;;;;;0.90;0.60;;;20.70;73.70;;;;;;5006132;28;20200;-65
2024/02/24 05:54:27;;;;;;;1.00;0.63;;;20.70;73.70;;;;;;5005254;28;20216;-64
2024/02/24 05:57:05;;;;;;;0.88;0.63;;;20.60;73.50;;;;;;5004894;28;20214;-64
2024/02/24 05:59:56;;;;;;;0.90;0.63;;;20.70;73.70;;;;;;5004725;28;20192;-65
2024/02/24 06:02:22;;;;;;;0.80;0.50;;;20.70;73.60;;;;;;5003750;28;20196;-64
2024/02/24 06:04:54;;;;;;;1.27;0.70;;;20.60;73.60;;;;;;5005060;28;20208;-64
2024/02/24 06:07:28;;;;;;;1.13;0.63;;;20.70;73.60;;;;;;5000760;28;20224;-64
2024/02/24 06:09:57;;;;;;;0.80;0.60;;;20.60;73.50;;;;;;5006614;28;20596;-63
2024/02/24 06:12:26;;;;;;;0.95;0.60;;;20.60;73.60;;;;;;5005949;28;20207;-64
2024/02/24 06:14:54;;;;;;;1.00;0.60;;;20.60;73.50;;;;;;5005108;28;20196;-65
2024/02/24 06:17:20;;;;;;;0.80;0.55;;;20.60;73.60;;;;;;5005427;28;20208;-64
2024/02/24 06:19:50;;;;;;;1.00;0.70;;;20.60;73.50;;;;;;5000526;28;20200;-65
2024/02/24 06:22:16;;;;;;;0.98;0.60;;;20.60;73.60;;;;;;5008919;28;20196;-64
2024/02/24 06:24:46;;;;;;;0.90;0.60;;;20.60;73.50;;;;;;5008263;28;20191;-64
2024/02/24 06:27:18;;;;;;;1.58;0.70;;;20.60;73.60;;;;;;5009319;28;20600;-64
2024/02/24 06:29:54;;;;;;;1.65;0.70;;;20.70;73.80;;;;;;5002656;28;20200;-64
2024/02/24 06:32:24;;;;;;;1.00;0.60;;;20.60;73.60;;;;;;5004945;28;20207;-64
2024/02/24 06:34:58;;;;;;;1.00;0.82;;;20.60;73.60;;;;;;5005107;28;21626;-64
2024/02/24 06:37:31;;;;;;;0.90;0.60;;;20.60;73.60;;;;;;5008814;28;20690;-63
2024/02/24 06:39:59;;;;;;;0.93;0.68;;;20.60;73.50;;;;;;5009431;28;20196;-64
2024/02/24 06:42:29;;;;;;;0.95;0.60;;;20.60;73.60;;;;;;5007998;28;20560;-65
2024/02/24 06:44:57;;;;;;;1.23;0.70;;;20.60;73.60;;;;;;5007194;28;20199;-64
2024/02/24 06:47:29;;;;;;;0.90;0.60;;;20.60;73.70;;;;;;5010672;28;20203;-64
2024/02/24 06:49:56;;;;;;;1.10;0.70;;;20.60;73.60;;;;;;5009946;28;20209;-65
2024/02/24 06:52:42;;;;;;;0.80;0.50;;;20.60;73.70;;;;;;4998802;28;20525;-64
2024/02/24 06:55:12;;;;;;;0.90;0.70;;;20.60;73.70;;;;;;5000794;28;20207;-64
2024/02/24 06:57:38;;;;;;;1.42;0.70;;;20.60;73.80;;;;;;5006772;28;20662;-64
2024/02/24 07:00:12;;;;;;;1.05;0.70;;;20.60;73.70;;;;;;5002495;28;20200;-66
2024/02/24 07:02:43;;;;;;;1.33;0.90;;;20.60;73.80;;;;;;5000882;28;20783;-65
2024/02/24 07:05:10;;;;;;;1.00;0.60;;;20.60;73.70;;;;;;4999363;28;20200;-65
2024/02/24 07:07:39;;;;;;;0.90;0.60;;;20.60;73.70;;;;;;5001199;28;20834;-65
2024/02/24 07:10:20;;;;;;;;;;;;;;;;;;;;;
2024/02/24 07:12:50;;;;;;;1.00;0.60;;;20.60;73.70;;;;;;5000893;28;20216;-65
2024/02/24 07:15:19;;;;;;;0.93;0.65;;;20.60;73.60;;;;;;4999441;28;20203;-65
2024/02/24 07:17:52;;;;;;;1.10;0.70;;;20.50;73.60;;;;;;5005144;28;20214;-64
2024/02/24 07:20:30;;;;;;;0.90;0.60;;;20.50;73.60;;;;;;5003624;28;20203;-65
2024/02/24 07:23:09;;;;;;;1.00;0.60;;;20.50;73.50;;;;;;4998261;28;20672;-65
2024/02/24 07:25:38;;;;;;;0.90;0.60;;;20.50;73.50;;;;;;5001015;28;20695;-65
2024/02/24 07:28:10;;;;;;;0.90;0.60;;;20.50;73.50;;;;;;5000344;28;20205;-66
2024/02/24 07:30:36;;;;;;;1.00;0.70;;;20.50;73.50;;;;;;4997351;28;20275;-65
2024/02/24 07:33:05;;;;;;;0.90;0.70;;;20.50;73.50;;;;;;5004563;28;20220;-65
2024/02/24 07:35:38;;;;;;;0.90;0.60;;;20.50;73.50;;;;;;4994926;28;20706;-64
2024/02/24 07:38:07;;;;;;;0.90;0.60;;;20.50;73.00;;;;;;5003588;28;20230;-67
2024/02/24 07:40:34;;;;;;;0.90;0.70;;;20.50;72.90;;;;;;5006655;28;20200;-65
2024/02/24 07:43:04;;;;;;;0.90;0.68;;;20.50;73.40;;;;;;4999321;28;20203;-65
2024/02/24 07:45:41;;;;;;;1.00;0.60;;;20.50;73.10;;;;;;4990912;28;20196;-65
2024/02/24 07:48:13;;;;;;;0.90;0.60;;;20.50;73.00;;;;;;4988180;28;20294;-65
2024/02/24 07:50:41;;;;;;;2.78;0.65;;;20.50;73.10;;;;;;4998064;28;20195;-66
2024/02/24 07:53:32;;;;;;;1.42;0.70;;;20.60;73.60;;;;;;4995908;28;20204;-66
2024/02/24 07:56:01;;;;;;;0.90;0.60;;;20.60;73.50;;;;;;5000545;28;20196;-66
2024/02/24 07:58:32;;;;;;;2.97;1.17;;;20.60;73.60;;;;;;5003825;28;20223;-66
2024/02/24 08:01:08;;;;;;;0.90;0.60;;;20.70;73.80;;;;;;4999401;28;20200;-67
2024/02/24 08:03:38;;;;;;;1.30;0.70;;;20.70;73.70;;;;;;5001686;28;20551;-66
2024/02/24 08:06:11;;;;;;;1.40;0.70;;;20.70;73.70;;;;;;4998067;28;20690;-66
2024/02/24 08:08:41;;;;;;;0.90;0.68;;;20.70;73.80;;;;;;4997129;28;20188;-66
2024/02/24 08:11:09;;;;;;;1.00;0.70;;;20.70;73.80;;;;;;5007627;28;20196;-66
2024/02/24 08:13:44;;;;;;;0.88;0.60;;;20.70;73.80;;;;;;5006618;28;20224;-66
2024/02/24 08:16:13;;;;;;;1.08;0.70;;;20.80;73.90;;;;;;5003755;28;20195;-66
2024/02/24 08:18:47;;;;;;;0.90;0.60;;;20.80;73.90;;;;;;5006776;28;20730;-66
2024/02/24 08:21:31;;;;;;;2.28;0.80;;;20.80;73.90;;;;;;5001347;28;20269;-66
2024/02/24 08:23:58;;;;;;;0.90;0.57;;;20.80;73.90;;;;;;5008342;28;20741;-66
2024/02/24 08:26:30;;;;;;;0.80;0.60;;;20.80;73.80;;;;;;5008941;28;20217;-66
2024/02/24 08:29:01;;;;;;;0.95;0.63;;;20.80;73.80;;;;;;4995909;28;20204;-66
2024/02/24 08:31:28;;;;;;;1.00;0.70;;;20.80;73.80;;;;;;5000503;28;20843;-66
2024/02/24 08:34:00;;;;;;;0.90;0.70;;;20.80;73.80;;;;;;5005441;28;20253;-66
2024/02/24 08:36:49;;;;;;;0.90;0.60;;;20.90;73.90;;;;;;5005473;28;20232;-66
2024/02/24 08:39:18;;;;;;;1.00;0.75;;;20.90;73.90;;;;;;5005537;28;20193;-66
2024/02/24 08:41:45;;;;;;;0.80;0.60;;;20.90;73.90;;;;;;5006483;28;20209;-66
2024/02/24 08:44:24;;;;;;;1.00;0.60;;;20.90;73.90;;;;;;5003139;28;20207;-66
2024/02/24 08:49:49;;;;;;;2.20;0.60;;;20.90;73.90;;;;;;5000791;28;20207;-66
2024/02/24 08:52:17;;;;;;;2.55;1.02;;;20.90;73.80;;;;;;5004508;28;20195;-67
2024/02/24 08:54:47;;;;;;;0.90;0.70;;;20.90;73.90;;;;;;4992529;28;20608;-64
2024/02/24 08:57:20;;;;;;;0.90;0.70;;;21.00;74.00;;;;;;5001419;28;20612;-63
2024/02/24 08:59:57;;;;;;;2.63;0.80;;;21.00;74.20;;;;;;5004493;28;20424;-61
2024/02/24 09:02:30;;;;;;;0.80;0.60;;;21.00;74.30;;;;;;4999998;28;20591;-64
2024/02/24 09:05:01;;;;;;;1.00;0.70;;;21.00;74.40;;;;;;5006765;28;20941;-64
2024/02/24 09:07:28;;;;;;;1.08;0.60;;;21.10;74.60;;;;;;5008997;28;20199;-70
2024/02/24 09:09:59;;;;;;;0.90;0.60;;;21.10;74.70;;;;;;5007090;28;20204;-68
2024/02/24 09:12:33;;;;;;;1.10;0.80;;;21.10;74.80;;;;;;4995339;28;20207;-68
2024/02/24 09:15:09;;;;;;;1.00;0.70;;;21.20;75.10;;;;;;5002642;28;20228;-59
2024/02/24 09:17:42;;;;;;;1.00;0.70;;;21.20;75.10;;;;;;5003760;28;20199;-58
2024/02/24 09:20:18;;;;;;;0.80;0.50;;;21.20;75.00;;;;;;5004728;28;20228;-61
2024/02/24 09:22:45;;;;;;;2.80;0.80;;;21.30;75.20;;;;;;5005049;28;20215;-72
2024/02/24 09:25:20;;;;;;;0.90;0.60;;;21.30;75.10;;;;;;5003987;28;20462;-69
2024/02/24 09:27:51;;;;;;;4.33;1.00;;;21.30;75.10;;;;;;5006498;28;20199;-72
2024/02/24 09:30:20;;;;;;;0.90;0.67;;;21.30;75.20;;;;;;5002003;28;20803;-71
2024/02/24 09:32:48;;;;;;;0.90;0.60;;;21.40;75.20;;;;;;5012229;28;20474;-69
2024/02/24 09:35:19;;;;;;;1.27;0.70;;;21.40;75.30;;;;;;5005926;28;20224;-72
2024/02/24 09:37:48;;;;;;;1.07;0.80;;;21.40;75.20;;;;;;4999519;28;20204;-73
2024/02/24 09:40:22;;;;;;;1.10;0.70;;;21.40;75.20;;;;;;5008250;28;20455;-70
2024/02/24 09:42:50;;;;;;;0.90;0.60;;;21.50;75.40;;;;;;5003694;28;20266;-69
2024/02/24 09:45:18;;;;;;;0.90;0.70;;;21.50;75.40;;;;;;4998167;28;20877;-68
2024/02/24 09:47:46;;;;;;;1.13;0.60;;;21.50;75.40;;;;;;5006227;28;20470;-69
2024/02/24 09:50:16;;;;;;;0.93;0.60;;;21.60;75.50;;;;;;5007721;28;20466;-65
2024/02/24 09:53:03;;;;;;;1.00;0.65;;;21.60;75.40;;;;;;5008861;28;20215;-68
2024/02/24 09:55:35;;;;;;;1.00;0.80;;;21.60;75.40;;;;;;4996137;28;20707;-65
2024/02/24 09:58:08;;;;;;;0.90;0.60;;;21.70;75.50;;;;;;5005902;28;20212;-66
2024/02/24 10:00:41;;;;;;;1.00;0.60;;;21.70;75.50;;;;;;5004510;28;20471;-64
2024/02/24 10:03:10;;;;;;;1.00;0.60;;;21.70;75.40;;;;;;5009568;28;20528;-61
2024/02/24 10:05:39;;;;;;;2.63;0.80;;;21.70;75.40;;;;;;5000073;28;20469;-60
2024/02/24 10:08:09;;;;;;;1.33;0.90;;;21.70;75.30;;;;;;5000798;28;20454;-59
2024/02/24 10:10:41;;;;;;;1.07;0.73;;;21.80;75.40;;;;;;5001823;28;20736;-60
2024/02/24 10:13:11;;;;;;;1.70;0.80;;;21.80;75.30;;;;;;5004998;28;20494;-65
2024/02/24 10:15:38;;;;;;;0.90;0.60;;;21.90;75.30;;;;;;5007451;28;20490;-64
2024/02/24 10:18:07;;;;;;;1.20;0.80;;;21.90;75.30;;;;;;5002562;28;20959;-64
2024/02/24 10:20:35;;;;;;;1.00;0.60;;;21.90;75.30;;;;;;5006518;28;20478;-59
2024/02/24 10:23:03;;;;;;;1.00;0.70;;;21.90;75.20;;;;;;5005684;28;20475;-61
2024/02/24 10:25:35;;;;;;;1.80;0.70;;;21.90;75.30;;;;;;4992025;28;21002;-62
2024/02/24 10:28:05;;;;;;;1.20;0.60;;;22.00;75.30;;;;;;5007804;28;21057;-59
2024/02/24 10:30:35;;;;;;;0.90;0.60;;;22.00;75.30;;;;;;5001172;28;20498;-57
2024/02/24 10:33:13;;;;;;;1.10;0.80;;;22.00;75.40;;;;;;5005956;28;20455;-68
2024/02/24 10:35:42;;;;;;;1.27;0.70;;;22.00;75.30;;;;;;5005139;28;20820;-65
2024/02/24 10:38:13;;;;;;;1.40;0.90;;;22.00;75.30;;;;;;5008852;28;20547;-66
2024/02/24 10:40:46;;;;;;;2.07;0.83;;;22.00;75.20;;;;;;5009431;28;20600;-69
2024/02/24 10:43:17;;;;;;;2.30;0.83;;;22.00;75.10;;;;;;5012487;28;20450;-71
2024/02/24 10:45:44;;;;;;;2.17;0.80;;;22.00;74.70;;;;;;4998443;28;20458;-66
2024/02/24 10:48:12;;;;;;;1.23;0.87;;;22.00;74.80;;;;;;5012495;28;20462;-65
2024/02/24 10:50:48;;;;;;;3.00;0.90;;;22.00;74.70;;;;;;5008764;28;20962;-71
2024/02/24 10:53:27;;;;;;;2.00;1.00;;;22.00;74.60;;;;;;5001385;28;20923;-69
2024/02/24 10:56:01;;;;;;;7.77;1.00;;;22.00;74.60;;;;;;5008725;28;20604;-68
2024/02/24 10:58:32;;;;;;;3.90;1.17;;;22.00;74.70;;;;;;5009694;28;20465;-68
2024/02/24 11:01:05;;;;;;;5.83;1.00;;;22.00;74.70;;;;;;5011318;28;20549;-69
2024/02/24 11:03:42;;;;;;;1.50;0.90;;;22.10;74.70;;;;;;5013347;28;20458;-68
2024/02/24 11:06:09;;;;;;;3.10;0.80;;;22.10;74.60;;;;;;5008134;28;20473;-67
2024/02/24 11:08:45;;;;;;;1.40;0.70;;;22.10;74.60;;;;;;4988539;28;21821;-72
2024/02/24 11:11:14;;;;;;;1.13;0.93;;;22.10;74.60;;;;;;4973746;28;20458;-65
2024/02/24 11:13:45;;;;;;;3.70;1.10;;;22.10;74.70;;;;;;4969475;28;20471;-67
2024/02/24 11:16:18;;;;;;;2.93;0.90;;;22.20;74.70;;;;;;4977636;28;20482;-70
2024/02/24 11:18:56;;;;;;;1.50;1.00;;;22.10;74.50;;;;;;4983309;28;20469;-66
2024/02/24 11:22:05;;;;;;;1.87;1.00;;;22.20;74.50;;;;;;5008393;28;20481;-67
2024/02/24 11:24:42;;;;;;;1.33;1.20;;;22.20;74.50;;;;;;5008977;28;20494;-68
2024/02/24 11:27:14;;;;;;;3.07;1.20;;;22.10;74.40;;;;;;5006168;28;20461;-63
2024/02/24 11:29:45;;;;;;;2.60;1.13;;;22.20;74.40;;;;;;4999389;28;20459;-66
2024/02/24 11:32:22;;;;;;;2.63;0.90;;;22.20;74.40;;;;;;5002886;28;20461;-66
2024/02/24 11:35:00;;;;;;;1.20;0.70;;;22.20;74.30;;;;;;5004830;28;20479;-66
2024/02/24 11:37:32;;;;;;;2.70;1.00;;;22.20;74.50;;;;;;5004446;28;20845;-68
2024/02/24 11:40:18;;;;;;;1.30;0.90;;;22.20;74.30;;;;;;5006750;28;21131;-66
2024/02/24 11:42:51;;;;;;;1.57;0.90;;;22.20;74.20;;;;;;5007269;28;20977;-65
2024/02/24 11:45:19;;;;;;;1.97;0.90;;;22.20;74.20;;;;;;5008127;28;20467;-65
2024/02/24 11:47:51;;;;;;;1.50;0.80;;;22.20;74.20;;;;;;5007350;28;20463;-64
2024/02/24 11:50:19;;;;;;;3.00;0.80;;;22.20;74.20;;;;;;5002201;28;20482;-65
2024/02/24 11:53:07;;;;;;;1.40;1.00;;;22.20;74.20;;;;;;5000362;28;20828;-63
2024/02/24 11:55:36;;;;;;;1.37;0.80;;;22.30;74.30;;;;;;5005722;28;20478;-65
2024/02/24 11:58:07;;;;;;;1.20;0.80;;;22.20;74.20;;;;;;5003539;28;20993;-67
2024/02/24 12:00:37;;;;;;;2.30;0.90;;;22.30;74.20;;;;;;5001913;28;20466;-63
2024/02/24 12:03:13;;;;;;;2.13;0.97;;;22.30;74.20;;;;;;4997843;28;20465;-61
2024/02/24 12:05:40;;;;;;;1.30;0.90;;;22.30;74.40;;;;;;5005867;28;20462;-61
2024/02/24 12:08:13;;;;;;;1.83;1.10;;;22.30;74.20;;;;;;5005777;28;20459;-62
2024/02/24 12:10:49;;;;;;;1.13;0.83;;;22.40;74.40;;;;;;5004530;28;20975;-58
2024/02/24 12:13:19;;;;;;;1.30;0.93;;;22.40;74.30;;;;;;5002040;28;20930;-64
2024/02/24 12:15:50;;;;;;;1.20;0.80;;;22.40;74.30;;;;;;5004309;28;20572;-65
2024/02/24 12:18:18;;;;;;;2.20;0.90;;;22.40;74.20;;;;;;4999423;28;20539;-65
2024/02/24 12:20:53;;;;;;;1.47;0.80;;;22.40;74.30;;;;;;4996145;28;20463;-65
2024/02/24 12:23:31;;;;;;;1.53;1.03;;;22.40;74.20;;;;;;5003940;28;20898;-64
2024/02/24 12:26:11;;;;;;;1.57;1.00;;;22.40;74.30;;;;;;5004636;28;20463;-68
2024/02/24 12:28:53;;;;;;;2.20;1.13;;;22.40;74.30;;;;;;5001696;28;20529;-66
2024/02/24 12:31:24;;;;;;;1.60;0.70;;;22.50;74.30;;;;;;4989047;28;20458;-66
2024/02/24 12:34:13;;;;;;;1.83;1.00;;;22.50;74.30;;;;;;4991525;28;20483;-65
2024/02/24 12:36:42;;;;;;;1.20;0.90;;;22.50;74.20;;;;;;4995154;28;20478;-65
2024/02/24 12:39:10;;;;;;;1.50;0.97;;;22.60;74.40;;;;;;5003330;28;20494;-64
2024/02/24 12:41:42;;;;;;;3.57;1.00;;;22.50;74.80;;;;;;5009483;28;20459;-63
2024/02/24 12:44:16;;;;;;;1.43;0.90;;;22.50;74.30;;;;;;4999172;28;20970;-65
2024/02/24 12:46:51;;;;;;;4.87;1.10;;;22.50;74.20;;;;;;5006626;28;20453;-64
2024/02/24 12:49:30;;;;;;;1.17;0.83;;;22.50;74.20;;;;;;4998809;28;21076;-64
2024/02/24 12:51:59;;;;;;;2.10;1.13;;;22.50;73.90;;;;;;5008118;28;20455;-67
2024/02/24 12:54:28;;;;;;;5.60;1.10;;;22.50;74.20;;;;;;5003843;28;20459;-67
2024/02/24 12:57:00;;;;;;;2.10;1.10;;;22.50;74.00;;;;;;5011485;28;20451;-65
2024/02/24 12:59:29;;;;;;;6.00;1.10;;;22.50;74.10;;;;;;4999287;28;21105;-65
2024/02/24 13:02:01;;;;;;;1.20;0.80;;;22.50;73.90;;;;;;5006120;28;20580;-75
2024/02/24 13:04:40;;;;;;;2.27;1.03;;;22.50;73.90;;;;;;4999999;28;21064;-72
2024/02/24 13:07:13;;;;;;;1.13;0.83;;;22.50;73.90;;;;;;5001282;28;20463;-69
2024/02/24 13:09:58;;;;;;;1.83;1.03;;;22.50;73.90;;;;;;5010719;28;21004;-69
2024/02/24 13:12:36;;;;;;;1.27;1.17;;;22.50;68.30;;;;;;5003529;28;20459;-71
2024/02/24 13:15:16;;;;;;;10.03;1.20;;;22.20;60.50;;;;;;5001477;28;20510;-72
2024/02/24 13:17:48;;;;;;;5.13;1.00;;;21.90;58.30;;;;;;5008123;28;20601;-65
2024/02/24 13:20:18;;;;;;;8.60;1.40;;;21.80;57.00;;;;;;5005345;28;20463;-70
2024/02/24 13:22:52;;;;;;;5.53;1.20;;;21.70;58.20;;;;;;5003802;28;20451;-67
2024/02/24 13:25:22;;;;;;;2.30;1.30;;;21.80;60.60;;;;;;4992955;28;20831;-69
2024/02/24 13:28:03;;;;;;;1.70;1.17;;;21.80;61.40;;;;;;5008321;28;20980;-66
2024/02/24 13:30:30;;;;;;;3.37;1.17;;;21.80;60.90;;;;;;5003822;28;20473;-70